sensor_id;sensor_type;location;lat;lon;timestamp;P1;durP1;ratioP1;P2;durP2;ratioP2
16115;SDS011;8162;47.104;15.432;2022-07-29T00:02:11;6.53;;;5.53;;
16115;SDS011;8162;47.104;15.432;2022-07-29T00:04:37;7.27;;;5.33;;
16115;SDS011;8162;47.104;15.432;2022-07-29T00:07:03;6.97;;;5.40;;
16115;SDS011;8162;47.104;15.432;2022-07-29T00:09:29;6.53;;;5.50;;
16115;SDS011;8162;47.104;15.432;2022-07-29T00:11:56;7.23;;;5.30;;
16115;SDS011;8162;47.104;15.432;2022-07-29T00:14:24;6.43;;;5.50;;
16115;SDS011;8162;47.104;15.432;2022-07-29T00:16:50;6.50;;;5.73;;
16115;SDS011;8162;47.104;15.432;2022-07-29T00:19:15;7.63;;;5.93;;
16115;SDS011;8162;47.104;15.432;2022-07-29T00:21:41;7.83;;;5.53;;
16115;SDS011;8162;47.104;15.432;2022-07-29T00:24:07;9.10;;;6.83;;
16115;SDS011;8162;47.104;15.432;2022-07-29T00:26:33;7.10;;;5.40;;
16115;SDS011;8162;47.104;15.432;2022-07-29T00:28:59;6.37;;;5.77;;
16115;SDS011;8162;47.104;15.432;2022-07-29T00:31:25;5.60;;;5.07;;
16115;SDS011;8162;47.104;15.432;2022-07-29T00:33:51;7.87;;;5.70;;
16115;SDS011;8162;47.104;15.432;2022-07-29T00:36:17;5.43;;;4.90;;
16115;SDS011;8162;47.104;15.432;2022-07-29T00:38:42;6.40;;;5.60;;
16115;SDS011;8162;47.104;15.432;2022-07-29T00:41:10;7.93;;;6.10;;
16115;SDS011;8162;47.104;15.432;2022-07-29T00:43:36;10.03;;;5.73;;
16115;SDS011;8162;47.104;15.432;2022-07-29T00:46:02;6.10;;;5.40;;
16115;SDS011;8162;47.104;15.432;2022-07-29T00:48:28;6.57;;;5.93;;
16115;SDS011;8162;47.104;15.432;2022-07-29T00:50:54;6.87;;;5.47;;
16115;SDS011;8162;47.104;15.432;2022-07-29T00:53:22;9.23;;;5.93;;
16115;SDS011;8162;47.104;15.432;2022-07-29T00:55:49;10.30;;;6.27;;
16115;SDS011;8162;47.104;15.432;2022-07-29T00:58:15;7.10;;;6.40;;
16115;SDS011;8162;47.104;15.432;2022-07-29T01:00:41;7.37;;;6.23;;
16115;SDS011;8162;47.104;15.432;2022-07-29T01:03:07;8.13;;;5.87;;
16115;SDS011;8162;47.104;15.432;2022-07-29T01:05:33;6.50;;;5.73;;
16115;SDS011;8162;47.104;15.432;2022-07-29T01:08:00;8.63;;;6.10;;
16115;SDS011;8162;47.104;15.432;2022-07-29T01:10:26;6.67;;;5.60;;
16115;SDS011;8162;47.104;15.432;2022-07-29T01:12:54;6.47;;;5.70;;
16115;SDS011;8162;47.104;15.432;2022-07-29T01:15:22;9.20;;;5.87;;
16115;SDS011;8162;47.104;15.432;2022-07-29T01:26:12;9.40;;;6.63;;
16115;SDS011;8162;47.104;15.432;2022-07-29T01:32:12;7.63;;;6.50;;
16115;SDS011;8162;47.104;15.432;2022-07-29T01:37:37;8.77;;;6.60;;
16115;SDS011;8162;47.104;15.432;2022-07-29T01:43:23;7.27;;;6.60;;
16115;SDS011;8162;47.104;15.432;2022-07-29T01:45:56;9.63;;;6.37;;
16115;SDS011;8162;47.104;15.432;2022-07-29T01:48:43;7.10;;;6.40;;
16115;SDS011;8162;47.104;15.432;2022-07-29T01:51:37;7.77;;;6.77;;
16115;SDS011;8162;47.104;15.432;2022-07-29T01:56:42;7.20;;;5.37;;
16115;SDS011;8162;47.104;15.432;2022-07-29T01:59:09;10.03;;;5.97;;
16115;SDS011;8162;47.104;15.432;2022-07-29T02:01:37;9.27;;;6.17;;
16115;SDS011;8162;47.104;15.432;2022-07-29T02:04:06;6.67;;;5.97;;
16115;SDS011;8162;47.104;15.432;2022-07-29T02:06:34;7.13;;;6.40;;
16115;SDS011;8162;47.104;15.432;2022-07-29T02:09:03;9.23;;;6.70;;
16115;SDS011;8162;47.104;15.432;2022-07-29T02:11:31;6.87;;;6.27;;
16115;SDS011;8162;47.104;15.432;2022-07-29T02:13:59;8.20;;;6.87;;
16115;SDS011;8162;47.104;15.432;2022-07-29T02:16:26;6.97;;;6.27;;
16115;SDS011;8162;47.104;15.432;2022-07-29T02:18:55;6.63;;;6.00;;
16115;SDS011;8162;47.104;15.432;2022-07-29T02:21:24;11.93;;;6.60;;
16115;SDS011;8162;47.104;15.432;2022-07-29T02:23:54;7.43;;;6.67;;
16115;SDS011;8162;47.104;15.432;2022-07-29T02:26:23;6.70;;;6.13;;
16115;SDS011;8162;47.104;15.432;2022-07-29T02:28:51;7.87;;;6.67;;
16115;SDS011;8162;47.104;15.432;2022-07-29T02:31:21;7.67;;;6.97;;
16115;SDS011;8162;47.104;15.432;2022-07-29T02:33:50;7.53;;;6.00;;
16115;SDS011;8162;47.104;15.432;2022-07-29T02:36:17;11.50;;;6.90;;
16115;SDS011;8162;47.104;15.432;2022-07-29T02:38:47;6.57;;;5.97;;
16115;SDS011;8162;47.104;15.432;2022-07-29T02:41:26;7.97;;;7.27;;
16115;SDS011;8162;47.104;15.432;2022-07-29T02:44:08;8.50;;;6.90;;
16115;SDS011;8162;47.104;15.432;2022-07-29T02:46:36;8.57;;;6.67;;
16115;SDS011;8162;47.104;15.432;2022-07-29T02:49:11;9.47;;;6.60;;
16115;SDS011;8162;47.104;15.432;2022-07-29T02:52:00;12.67;;;7.13;;
16115;SDS011;8162;47.104;15.432;2022-07-29T02:54:33;7.13;;;6.30;;
16115;SDS011;8162;47.104;15.432;2022-07-29T02:57:20;7.67;;;6.97;;
16115;SDS011;8162;47.104;15.432;2022-07-29T02:59:52;9.73;;;6.90;;
16115;SDS011;8162;47.104;15.432;2022-07-29T03:02:22;8.47;;;6.40;;
16115;SDS011;8162;47.104;15.432;2022-07-29T03:04:50;9.87;;;7.20;;
16115;SDS011;8162;47.104;15.432;2022-07-29T03:07:18;7.17;;;6.57;;
16115;SDS011;8162;47.104;15.432;2022-07-29T03:09:45;7.53;;;6.80;;
16115;SDS011;8162;47.104;15.432;2022-07-29T03:12:11;6.90;;;6.20;;
16115;SDS011;8162;47.104;15.432;2022-07-29T03:14:38;7.33;;;6.60;;
16115;SDS011;8162;47.104;15.432;2022-07-29T03:17:04;7.93;;;6.83;;
16115;SDS011;8162;47.104;15.432;2022-07-29T03:19:30;7.03;;;6.43;;
16115;SDS011;8162;47.104;15.432;2022-07-29T03:21:57;7.47;;;6.63;;
16115;SDS011;8162;47.104;15.432;2022-07-29T03:24:27;6.73;;;6.10;;
16115;SDS011;8162;47.104;15.432;2022-07-29T03:26:55;7.27;;;6.47;;
16115;SDS011;8162;47.104;15.432;2022-07-29T03:29:21;7.37;;;6.63;;
16115;SDS011;8162;47.104;15.432;2022-07-29T03:31:47;8.30;;;7.50;;
16115;SDS011;8162;47.104;15.432;2022-07-29T03:34:12;7.43;;;6.60;;
16115;SDS011;8162;47.104;15.432;2022-07-29T03:36:38;7.33;;;6.63;;
16115;SDS011;8162;47.104;15.432;2022-07-29T03:39:04;10.87;;;7.30;;
16115;SDS011;8162;47.104;15.432;2022-07-29T03:41:31;7.40;;;6.67;;
16115;SDS011;8162;47.104;15.432;2022-07-29T03:44:00;7.13;;;6.53;;
16115;SDS011;8162;47.104;15.432;2022-07-29T03:46:27;7.53;;;6.83;;
16115;SDS011;8162;47.104;15.432;2022-07-29T03:48:55;7.93;;;6.97;;
16115;SDS011;8162;47.104;15.432;2022-07-29T03:51:26;7.67;;;6.97;;
16115;SDS011;8162;47.104;15.432;2022-07-29T03:53:52;8.40;;;7.60;;
16115;SDS011;8162;47.104;15.432;2022-07-29T03:56:19;7.80;;;7.10;;
16115;SDS011;8162;47.104;15.432;2022-07-29T03:58:47;7.70;;;7.00;;
16115;SDS011;8162;47.104;15.432;2022-07-29T04:01:16;7.60;;;6.60;;
16115;SDS011;8162;47.104;15.432;2022-07-29T04:03:43;6.97;;;6.30;;
16115;SDS011;8162;47.104;15.432;2022-07-29T04:06:12;8.40;;;6.27;;
16115;SDS011;8162;47.104;15.432;2022-07-29T04:08:38;7.60;;;6.90;;
16115;SDS011;8162;47.104;15.432;2022-07-29T04:11:04;7.60;;;6.90;;
16115;SDS011;8162;47.104;15.432;2022-07-29T04:13:30;8.20;;;7.00;;
16115;SDS011;8162;47.104;15.432;2022-07-29T04:15:56;10.10;;;7.47;;
16115;SDS011;8162;47.104;15.432;2022-07-29T04:18:22;8.10;;;7.33;;
16115;SDS011;8162;47.104;15.432;2022-07-29T04:20:48;7.80;;;7.00;;
16115;SDS011;8162;47.104;15.432;2022-07-29T04:23:14;7.97;;;7.20;;
16115;SDS011;8162;47.104;15.432;2022-07-29T04:25:40;8.07;;;7.47;;
16115;SDS011;8162;47.104;15.432;2022-07-29T04:28:06;7.70;;;7.00;;
16115;SDS011;8162;47.104;15.432;2022-07-29T04:30:33;7.20;;;6.50;;
16115;SDS011;8162;47.104;15.432;2022-07-29T04:33:01;7.87;;;7.00;;
16115;SDS011;8162;47.104;15.432;2022-07-29T04:35:28;9.50;;;7.37;;
16115;SDS011;8162;47.104;15.432;2022-07-29T04:37:54;8.60;;;7.43;;
16115;SDS011;8162;47.104;15.432;2022-07-29T04:40:20;7.67;;;6.83;;
16115;SDS011;8162;47.104;15.432;2022-07-29T04:42:46;7.80;;;7.00;;
16115;SDS011;8162;47.104;15.432;2022-07-29T04:45:11;8.30;;;7.37;;
16115;SDS011;8162;47.104;15.432;2022-07-29T04:47:37;8.10;;;7.20;;
16115;SDS011;8162;47.104;15.432;2022-07-29T04:50:03;8.10;;;7.30;;
16115;SDS011;8162;47.104;15.432;2022-07-29T04:52:30;7.60;;;6.90;;
16115;SDS011;8162;47.104;15.432;2022-07-29T04:54:55;8.00;;;7.20;;
16115;SDS011;8162;47.104;15.432;2022-07-29T04:57:21;7.07;;;6.37;;
16115;SDS011;8162;47.104;15.432;2022-07-29T04:59:47;7.80;;;7.20;;
16115;SDS011;8162;47.104;15.432;2022-07-29T05:02:13;8.33;;;7.27;;
16115;SDS011;8162;47.104;15.432;2022-07-29T05:04:39;7.60;;;6.90;;
16115;SDS011;8162;47.104;15.432;2022-07-29T05:07:04;9.13;;;6.80;;
16115;SDS011;8162;47.104;15.432;2022-07-29T05:09:30;7.70;;;7.00;;
16115;SDS011;8162;47.104;15.432;2022-07-29T05:11:57;8.97;;;6.83;;
16115;SDS011;8162;47.104;15.432;2022-07-29T05:14:23;7.73;;;6.90;;
16115;SDS011;8162;47.104;15.432;2022-07-29T05:16:48;8.17;;;7.13;;
16115;SDS011;8162;47.104;15.432;2022-07-29T05:19:16;10.00;;;7.13;;
16115;SDS011;8162;47.104;15.432;2022-07-29T05:21:42;7.43;;;6.73;;
16115;SDS011;8162;47.104;15.432;2022-07-29T05:24:09;9.90;;;6.90;;
16115;SDS011;8162;47.104;15.432;2022-07-29T05:26:34;10.43;;;7.67;;
16115;SDS011;8162;47.104;15.432;2022-07-29T05:29:00;9.20;;;7.40;;
16115;SDS011;8162;47.104;15.432;2022-07-29T05:31:26;8.23;;;7.43;;
16115;SDS011;8162;47.104;15.432;2022-07-29T05:33:52;7.83;;;7.03;;
16115;SDS011;8162;47.104;15.432;2022-07-29T05:36:17;8.07;;;6.60;;
16115;SDS011;8162;47.104;15.432;2022-07-29T05:38:43;8.03;;;6.90;;
16115;SDS011;8162;47.104;15.432;2022-07-29T05:41:09;7.73;;;6.97;;
16115;SDS011;8162;47.104;15.432;2022-07-29T05:43:34;7.37;;;6.67;;
16115;SDS011;8162;47.104;15.432;2022-07-29T05:46:00;8.90;;;7.50;;
16115;SDS011;8162;47.104;15.432;2022-07-29T05:48:26;9.63;;;8.07;;
16115;SDS011;8162;47.104;15.432;2022-07-29T05:50:52;10.87;;;7.50;;
16115;SDS011;8162;47.104;15.432;2022-07-29T05:53:17;8.00;;;6.87;;
16115;SDS011;8162;47.104;15.432;2022-07-29T05:55:43;9.60;;;7.07;;
16115;SDS011;8162;47.104;15.432;2022-07-29T05:58:08;8.20;;;7.40;;
16115;SDS011;8162;47.104;15.432;2022-07-29T06:00:34;7.43;;;6.77;;
16115;SDS011;8162;47.104;15.432;2022-07-29T06:03:00;8.60;;;7.77;;
16115;SDS011;8162;47.104;15.432;2022-07-29T06:05:26;8.20;;;7.40;;
16115;SDS011;8162;47.104;15.432;2022-07-29T06:07:52;8.53;;;7.60;;
16115;SDS011;8162;47.104;15.432;2022-07-29T06:10:18;7.70;;;7.00;;
16115;SDS011;8162;47.104;15.432;2022-07-29T06:12:44;9.40;;;7.60;;
16115;SDS011;8162;47.104;15.432;2022-07-29T06:15:09;9.30;;;7.63;;
16115;SDS011;8162;47.104;15.432;2022-07-29T06:17:35;8.27;;;7.43;;
16115;SDS011;8162;47.104;15.432;2022-07-29T06:20:01;10.57;;;6.97;;
16115;SDS011;8162;47.104;15.432;2022-07-29T06:22:27;7.90;;;7.13;;
16115;SDS011;8162;47.104;15.432;2022-07-29T06:24:53;8.60;;;7.90;;
16115;SDS011;8162;47.104;15.432;2022-07-29T06:27:19;8.70;;;7.40;;
16115;SDS011;8162;47.104;15.432;2022-07-29T06:29:45;8.40;;;7.53;;
16115;SDS011;8162;47.104;15.432;2022-07-29T06:32:10;8.67;;;7.77;;
16115;SDS011;8162;47.104;15.432;2022-07-29T06:34:36;7.60;;;6.90;;
16115;SDS011;8162;47.104;15.432;2022-07-29T06:37:08;8.10;;;7.40;;
16115;SDS011;8162;47.104;15.432;2022-07-29T06:39:34;8.10;;;7.30;;
16115;SDS011;8162;47.104;15.432;2022-07-29T06:42:01;9.30;;;7.20;;
16115;SDS011;8162;47.104;15.432;2022-07-29T06:44:28;7.87;;;7.20;;
16115;SDS011;8162;47.104;15.432;2022-07-29T06:46:54;12.00;;;7.80;;
16115;SDS011;8162;47.104;15.432;2022-07-29T06:49:20;7.63;;;6.93;;
16115;SDS011;8162;47.104;15.432;2022-07-29T06:51:47;10.27;;;7.33;;
16115;SDS011;8162;47.104;15.432;2022-07-29T06:54:12;8.33;;;7.53;;
16115;SDS011;8162;47.104;15.432;2022-07-29T06:56:38;7.43;;;6.73;;
16115;SDS011;8162;47.104;15.432;2022-07-29T06:59:10;9.10;;;7.03;;
16115;SDS011;8162;47.104;15.432;2022-07-29T07:01:37;7.30;;;6.43;;
16115;SDS011;8162;47.104;15.432;2022-07-29T07:04:05;7.57;;;6.87;;
16115;SDS011;8162;47.104;15.432;2022-07-29T07:06:31;7.93;;;7.00;;
16115;SDS011;8162;47.104;15.432;2022-07-29T07:08:57;7.87;;;7.07;;
16115;SDS011;8162;47.104;15.432;2022-07-29T07:11:22;7.87;;;7.00;;
16115;SDS011;8162;47.104;15.432;2022-07-29T07:13:48;7.17;;;6.50;;
16115;SDS011;8162;47.104;15.432;2022-07-29T07:16:14;7.63;;;6.53;;
16115;SDS011;8162;47.104;15.432;2022-07-29T07:18:39;7.70;;;7.00;;
16115;SDS011;8162;47.104;15.432;2022-07-29T07:21:05;7.77;;;6.97;;
16115;SDS011;8162;47.104;15.432;2022-07-29T07:23:31;7.30;;;6.60;;
16115;SDS011;8162;47.104;15.432;2022-07-29T07:25:56;7.63;;;6.50;;
16115;SDS011;8162;47.104;15.432;2022-07-29T07:28:22;8.80;;;6.80;;
16115;SDS011;8162;47.104;15.432;2022-07-29T07:30:48;7.97;;;7.17;;
16115;SDS011;8162;47.104;15.432;2022-07-29T07:33:13;7.57;;;6.87;;
16115;SDS011;8162;47.104;15.432;2022-07-29T07:35:40;6.77;;;6.00;;
16115;SDS011;8162;47.104;15.432;2022-07-29T07:38:06;6.47;;;5.87;;
16115;SDS011;8162;47.104;15.432;2022-07-29T07:40:32;7.00;;;6.40;;
16115;SDS011;8162;47.104;15.432;2022-07-29T07:42:57;6.73;;;6.13;;
16115;SDS011;8162;47.104;15.432;2022-07-29T07:45:23;6.10;;;5.50;;
16115;SDS011;8162;47.104;15.432;2022-07-29T07:47:49;6.43;;;5.77;;
16115;SDS011;8162;47.104;15.432;2022-07-29T07:50:15;6.57;;;5.87;;
16115;SDS011;8162;47.104;15.432;2022-07-29T07:52:49;6.63;;;6.13;;
16115;SDS011;8162;47.104;15.432;2022-07-29T07:55:17;6.80;;;5.70;;
16115;SDS011;8162;47.104;15.432;2022-07-29T07:57:44;7.37;;;6.37;;
16115;SDS011;8162;47.104;15.432;2022-07-29T08:00:11;6.77;;;6.17;;
16115;SDS011;8162;47.104;15.432;2022-07-29T08:02:38;6.33;;;5.73;;
16115;SDS011;8162;47.104;15.432;2022-07-29T08:05:04;6.90;;;6.20;;
16115;SDS011;8162;47.104;15.432;2022-07-29T08:07:31;6.07;;;5.57;;
16115;SDS011;8162;47.104;15.432;2022-07-29T08:09:57;6.73;;;5.93;;
16115;SDS011;8162;47.104;15.432;2022-07-29T08:12:23;6.30;;;5.30;;
16115;SDS011;8162;47.104;15.432;2022-07-29T08:14:48;6.50;;;5.70;;
16115;SDS011;8162;47.104;15.432;2022-07-29T08:17:14;5.60;;;5.10;;
16115;SDS011;8162;47.104;15.432;2022-07-29T08:19:39;5.97;;;5.43;;
16115;SDS011;8162;47.104;15.432;2022-07-29T08:22:06;6.10;;;5.00;;
16115;SDS011;8162;47.104;15.432;2022-07-29T08:24:31;6.27;;;5.73;;
16115;SDS011;8162;47.104;15.432;2022-07-29T08:27:12;6.13;;;5.53;;
16115;SDS011;8162;47.104;15.432;2022-07-29T08:29:39;5.50;;;4.97;;
16115;SDS011;8162;47.104;15.432;2022-07-29T08:32:05;5.50;;;5.10;;
16115;SDS011;8162;47.104;15.432;2022-07-29T08:34:31;6.43;;;5.83;;
16115;SDS011;8162;47.104;15.432;2022-07-29T08:36:57;5.53;;;5.03;;
16115;SDS011;8162;47.104;15.432;2022-07-29T08:39:23;6.03;;;5.43;;
16115;SDS011;8162;47.104;15.432;2022-07-29T08:41:50;6.23;;;5.17;;
16115;SDS011;8162;47.104;15.432;2022-07-29T08:44:17;5.40;;;4.90;;
16115;SDS011;8162;47.104;15.432;2022-07-29T08:46:43;6.50;;;5.10;;
16115;SDS011;8162;47.104;15.432;2022-07-29T08:49:09;4.97;;;4.47;;
16115;SDS011;8162;47.104;15.432;2022-07-29T08:51:35;6.47;;;5.10;;
16115;SDS011;8162;47.104;15.432;2022-07-29T08:54:03;5.33;;;4.93;;
16115;SDS011;8162;47.104;15.432;2022-07-29T08:56:30;4.77;;;4.37;;
16115;SDS011;8162;47.104;15.432;2022-07-29T08:58:57;5.10;;;4.70;;
16115;SDS011;8162;47.104;15.432;2022-07-29T09:01:24;5.10;;;4.70;;
16115;SDS011;8162;47.104;15.432;2022-07-29T09:03:54;7.23;;;4.40;;
16115;SDS011;8162;47.104;15.432;2022-07-29T09:06:21;6.07;;;4.50;;
16115;SDS011;8162;47.104;15.432;2022-07-29T09:08:51;5.10;;;4.60;;
16115;SDS011;8162;47.104;15.432;2022-07-29T09:11:17;5.23;;;4.13;;
16115;SDS011;8162;47.104;15.432;2022-07-29T09:13:42;4.73;;;4.33;;
16115;SDS011;8162;47.104;15.432;2022-07-29T09:16:08;4.30;;;3.90;;
16115;SDS011;8162;47.104;15.432;2022-07-29T09:18:39;4.53;;;4.13;;
16115;SDS011;8162;47.104;15.432;2022-07-29T09:21:07;4.60;;;4.27;;
16115;SDS011;8162;47.104;15.432;2022-07-29T09:24:00;4.83;;;4.33;;
16115;SDS011;8162;47.104;15.432;2022-07-29T09:26:29;5.40;;;4.90;;
16115;SDS011;8162;47.104;15.432;2022-07-29T09:28:56;4.77;;;4.30;;
16115;SDS011;8162;47.104;15.432;2022-07-29T09:31:33;5.83;;;4.57;;
16115;SDS011;8162;47.104;15.432;2022-07-29T09:34:00;5.10;;;4.57;;
16115;SDS011;8162;47.104;15.432;2022-07-29T09:36:27;5.83;;;4.40;;
16115;SDS011;8162;47.104;15.432;2022-07-29T09:38:57;5.10;;;4.00;;
16115;SDS011;8162;47.104;15.432;2022-07-29T09:41:26;4.93;;;4.40;;
16115;SDS011;8162;47.104;15.432;2022-07-29T09:43:59;5.57;;;4.73;;
16115;SDS011;8162;47.104;15.432;2022-07-29T09:46:26;4.63;;;4.17;;
16115;SDS011;8162;47.104;15.432;2022-07-29T09:49:11;5.43;;;4.40;;
16115;SDS011;8162;47.104;15.432;2022-07-29T09:51:38;4.67;;;4.13;;
16115;SDS011;8162;47.104;15.432;2022-07-29T09:54:20;6.03;;;4.57;;
16115;SDS011;8162;47.104;15.432;2022-07-29T09:56:48;5.10;;;4.23;;
16115;SDS011;8162;47.104;15.432;2022-07-29T09:59:14;5.17;;;4.10;;
16115;SDS011;8162;47.104;15.432;2022-07-29T10:01:40;5.20;;;4.30;;
16115;SDS011;8162;47.104;15.432;2022-07-29T10:04:06;4.70;;;4.27;;
16115;SDS011;8162;47.104;15.432;2022-07-29T10:06:31;4.63;;;4.23;;
16115;SDS011;8162;47.104;15.432;2022-07-29T10:09:07;4.90;;;4.40;;
16115;SDS011;8162;47.104;15.432;2022-07-29T10:11:34;6.97;;;4.30;;
16115;SDS011;8162;47.104;15.432;2022-07-29T10:14:01;4.93;;;4.20;;
16115;SDS011;8162;47.104;15.432;2022-07-29T10:16:28;5.23;;;4.70;;
16115;SDS011;8162;47.104;15.432;2022-07-29T10:18:58;5.27;;;4.40;;
16115;SDS011;8162;47.104;15.432;2022-07-29T10:21:27;4.73;;;4.33;;
16115;SDS011;8162;47.104;15.432;2022-07-29T10:23:53;5.07;;;4.53;;
16115;SDS011;8162;47.104;15.432;2022-07-29T10:26:19;5.13;;;4.20;;
16115;SDS011;8162;47.104;15.432;2022-07-29T10:28:45;7.83;;;4.60;;
16115;SDS011;8162;47.104;15.432;2022-07-29T10:31:14;7.30;;;5.17;;
16115;SDS011;8162;47.104;15.432;2022-07-29T10:34:08;7.63;;;4.90;;
16115;SDS011;8162;47.104;15.432;2022-07-29T10:36:58;4.93;;;4.43;;
16115;SDS011;8162;47.104;15.432;2022-07-29T10:39:38;5.83;;;4.60;;
16115;SDS011;8162;47.104;15.432;2022-07-29T10:42:21;6.47;;;4.00;;
16115;SDS011;8162;47.104;15.432;2022-07-29T10:44:49;4.80;;;4.30;;
16115;SDS011;8162;47.104;15.432;2022-07-29T10:47:34;5.23;;;4.73;;
16115;SDS011;8162;47.104;15.432;2022-07-29T10:50:01;4.80;;;4.10;;
16115;SDS011;8162;47.104;15.432;2022-07-29T10:55:33;5.57;;;4.20;;
16115;SDS011;8162;47.104;15.432;2022-07-29T10:58:22;6.30;;;4.40;;
16115;SDS011;8162;47.104;15.432;2022-07-29T11:00:52;6.27;;;4.40;;
16115;SDS011;8162;47.104;15.432;2022-07-29T11:06:16;5.87;;;4.73;;
16115;SDS011;8162;47.104;15.432;2022-07-29T11:08:42;4.97;;;4.03;;
16115;SDS011;8162;47.104;15.432;2022-07-29T11:13:52;4.70;;;3.93;;
16115;SDS011;8162;47.104;15.432;2022-07-29T11:16:20;5.23;;;4.03;;
16115;SDS011;8162;47.104;15.432;2022-07-29T11:21:38;5.60;;;4.23;;
16115;SDS011;8162;47.104;15.432;2022-07-29T11:24:12;4.80;;;3.67;;
16115;SDS011;8162;47.104;15.432;2022-07-29T11:26:39;5.80;;;3.90;;
16115;SDS011;8162;47.104;15.432;2022-07-29T11:31:34;6.00;;;4.73;;
16115;SDS011;8162;47.104;15.432;2022-07-29T11:34:18;8.43;;;4.80;;
16115;SDS011;8162;47.104;15.432;2022-07-29T11:39:34;4.40;;;4.00;;
16115;SDS011;8162;47.104;15.432;2022-07-29T11:50:15;4.97;;;4.50;;
16115;SDS011;8162;47.104;15.432;2022-07-29T11:52:46;5.20;;;4.80;;
16115;SDS011;8162;47.104;15.432;2022-07-29T11:55:21;6.33;;;4.37;;
16115;SDS011;8162;47.104;15.432;2022-07-29T11:57:58;4.73;;;4.20;;
16115;SDS011;8162;47.104;15.432;2022-07-29T12:00:32;6.00;;;4.80;;
16115;SDS011;8162;47.104;15.432;2022-07-29T12:02:59;5.17;;;4.57;;
16115;SDS011;8162;47.104;15.432;2022-07-29T12:05:36;5.20;;;4.63;;
16115;SDS011;8162;47.104;15.432;2022-07-29T12:08:21;10.83;;;5.03;;
16115;SDS011;8162;47.104;15.432;2022-07-29T12:10:48;5.50;;;4.60;;
16115;SDS011;8162;47.104;15.432;2022-07-29T12:13:16;5.30;;;4.63;;
16115;SDS011;8162;47.104;15.432;2022-07-29T12:15:51;5.23;;;4.60;;
16115;SDS011;8162;47.104;15.432;2022-07-29T12:18:18;5.60;;;5.00;;
16115;SDS011;8162;47.104;15.432;2022-07-29T12:20:45;4.80;;;4.40;;
16115;SDS011;8162;47.104;15.432;2022-07-29T12:23:13;5.93;;;4.90;;
16115;SDS011;8162;47.104;15.432;2022-07-29T12:25:41;5.97;;;4.60;;
16115;SDS011;8162;47.104;15.432;2022-07-29T12:28:09;5.03;;;4.53;;
16115;SDS011;8162;47.104;15.432;2022-07-29T12:33:11;7.60;;;5.07;;
16115;SDS011;8162;47.104;15.432;2022-07-29T12:35:38;7.73;;;4.60;;
16115;SDS011;8162;47.104;15.432;2022-07-29T12:38:04;7.67;;;4.70;;
16115;SDS011;8162;47.104;15.432;2022-07-29T12:40:30;5.03;;;3.97;;
16115;SDS011;8162;47.104;15.432;2022-07-29T12:45:34;6.20;;;4.57;;
16115;SDS011;8162;47.104;15.432;2022-07-29T12:48:01;4.77;;;4.13;;
16115;SDS011;8162;47.104;15.432;2022-07-29T12:50:27;6.47;;;4.47;;
16115;SDS011;8162;47.104;15.432;2022-07-29T12:52:53;4.57;;;4.17;;
16115;SDS011;8162;47.104;15.432;2022-07-29T12:55:38;4.87;;;4.43;;
16115;SDS011;8162;47.104;15.432;2022-07-29T13:03:27;5.30;;;4.30;;
16115;SDS011;8162;47.104;15.432;2022-07-29T13:05:53;5.80;;;4.43;;
16115;SDS011;8162;47.104;15.432;2022-07-29T13:08:18;4.30;;;3.90;;
16115;SDS011;8162;47.104;15.432;2022-07-29T13:10:44;4.53;;;3.70;;
16115;SDS011;8162;47.104;15.432;2022-07-29T13:13:11;7.43;;;4.27;;
16115;SDS011;8162;47.104;15.432;2022-07-29T13:15:41;5.07;;;4.67;;
16115;SDS011;8162;47.104;15.432;2022-07-29T13:18:27;6.20;;;4.57;;
16115;SDS011;8162;47.104;15.432;2022-07-29T13:21:12;5.00;;;4.60;;
16115;SDS011;8162;47.104;15.432;2022-07-29T13:23:40;5.13;;;4.73;;
16115;SDS011;8162;47.104;15.432;2022-07-29T13:26:06;4.80;;;4.40;;
16115;SDS011;8162;47.104;15.432;2022-07-29T13:28:33;5.00;;;4.53;;
16115;SDS011;8162;47.104;15.432;2022-07-29T13:30:59;5.43;;;4.27;;
16115;SDS011;8162;47.104;15.432;2022-07-29T13:33:25;4.60;;;4.20;;
16115;SDS011;8162;47.104;15.432;2022-07-29T13:35:51;4.97;;;4.57;;
16115;SDS011;8162;47.104;15.432;2022-07-29T13:38:16;7.63;;;5.00;;
16115;SDS011;8162;47.104;15.432;2022-07-29T13:40:42;4.53;;;4.13;;
16115;SDS011;8162;47.104;15.432;2022-07-29T13:43:11;5.63;;;3.77;;
16115;SDS011;8162;47.104;15.432;2022-07-29T13:45:37;5.67;;;4.60;;
16115;SDS011;8162;47.104;15.432;2022-07-29T13:48:03;4.63;;;4.27;;
16115;SDS011;8162;47.104;15.432;2022-07-29T13:50:31;4.73;;;4.07;;
16115;SDS011;8162;47.104;15.432;2022-07-29T13:52:57;4.33;;;3.93;;
16115;SDS011;8162;47.104;15.432;2022-07-29T13:55:23;4.77;;;3.97;;
16115;SDS011;8162;47.104;15.432;2022-07-29T13:57:49;4.40;;;3.43;;
16115;SDS011;8162;47.104;15.432;2022-07-29T14:00:14;5.13;;;4.17;;
16115;SDS011;8162;47.104;15.432;2022-07-29T14:02:41;4.53;;;4.10;;
16115;SDS011;8162;47.104;15.432;2022-07-29T14:05:07;5.73;;;4.40;;
16115;SDS011;8162;47.104;15.432;2022-07-29T14:07:34;6.00;;;3.93;;
16115;SDS011;8162;47.104;15.432;2022-07-29T14:10:01;7.90;;;4.40;;
16115;SDS011;8162;47.104;15.432;2022-07-29T14:12:27;7.63;;;4.30;;
16115;SDS011;8162;47.104;15.432;2022-07-29T14:14:53;5.97;;;4.73;;
16115;SDS011;8162;47.104;15.432;2022-07-29T14:17:18;6.30;;;4.33;;
16115;SDS011;8162;47.104;15.432;2022-07-29T14:19:44;5.27;;;4.77;;
16115;SDS011;8162;47.104;15.432;2022-07-29T14:22:10;5.17;;;4.20;;
16115;SDS011;8162;47.104;15.432;2022-07-29T14:24:35;6.17;;;4.10;;
16115;SDS011;8162;47.104;15.432;2022-07-29T14:27:02;6.20;;;4.60;;
16115;SDS011;8162;47.104;15.432;2022-07-29T14:29:28;5.40;;;4.70;;
16115;SDS011;8162;47.104;15.432;2022-07-29T14:31:53;6.80;;;4.47;;
16115;SDS011;8162;47.104;15.432;2022-07-29T14:34:19;4.50;;;4.10;;
16115;SDS011;8162;47.104;15.432;2022-07-29T14:36:45;5.40;;;4.83;;
16115;SDS011;8162;47.104;15.432;2022-07-29T14:39:10;4.33;;;3.93;;
16115;SDS011;8162;47.104;15.432;2022-07-29T14:41:36;5.40;;;4.67;;
16115;SDS011;8162;47.104;15.432;2022-07-29T14:44:03;5.37;;;4.40;;
16115;SDS011;8162;47.104;15.432;2022-07-29T14:46:29;4.73;;;4.23;;
16115;SDS011;8162;47.104;15.432;2022-07-29T14:48:54;5.33;;;4.03;;
16115;SDS011;8162;47.104;15.432;2022-07-29T14:51:20;5.40;;;4.30;;
16115;SDS011;8162;47.104;15.432;2022-07-29T14:53:48;6.00;;;4.20;;
16115;SDS011;8162;47.104;15.432;2022-07-29T14:56:17;6.40;;;4.80;;
16115;SDS011;8162;47.104;15.432;2022-07-29T14:58:42;6.57;;;4.80;;
16115;SDS011;8162;47.104;15.432;2022-07-29T15:01:08;6.97;;;4.63;;
16115;SDS011;8162;47.104;15.432;2022-07-29T15:03:34;4.80;;;4.07;;
16115;SDS011;8162;47.104;15.432;2022-07-29T15:05:59;4.40;;;4.10;;
16115;SDS011;8162;47.104;15.432;2022-07-29T15:08:25;5.40;;;4.90;;
16115;SDS011;8162;47.104;15.432;2022-07-29T15:10:53;4.20;;;3.90;;
16115;SDS011;8162;47.104;15.432;2022-07-29T15:13:18;4.40;;;4.00;;
16115;SDS011;8162;47.104;15.432;2022-07-29T15:15:44;6.10;;;4.43;;
16115;SDS011;8162;47.104;15.432;2022-07-29T15:18:11;5.70;;;4.17;;
16115;SDS011;8162;47.104;15.432;2022-07-29T15:20:37;8.23;;;4.60;;
16115;SDS011;8162;47.104;15.432;2022-07-29T15:23:02;9.77;;;4.70;;
16115;SDS011;8162;47.104;15.432;2022-07-29T15:25:28;8.57;;;4.93;;
16115;SDS011;8162;47.104;15.432;2022-07-29T15:27:54;4.50;;;4.10;;
16115;SDS011;8162;47.104;15.432;2022-07-29T15:30:20;5.03;;;4.23;;
16115;SDS011;8162;47.104;15.432;2022-07-29T15:32:45;5.33;;;4.17;;
16115;SDS011;8162;47.104;15.432;2022-07-29T15:35:11;7.33;;;4.53;;
16115;SDS011;8162;47.104;15.432;2022-07-29T15:37:37;4.13;;;3.73;;
16115;SDS011;8162;47.104;15.432;2022-07-29T15:40:04;5.43;;;4.13;;
16115;SDS011;8162;47.104;15.432;2022-07-29T15:42:30;4.77;;;3.83;;
16115;SDS011;8162;47.104;15.432;2022-07-29T15:44:56;6.70;;;4.67;;
16115;SDS011;8162;47.104;15.432;2022-07-29T15:47:22;4.70;;;4.17;;
16115;SDS011;8162;47.104;15.432;2022-07-29T15:49:48;5.83;;;4.03;;